Date,TemperatureHighF,TemperatureAvgF,TemperatureLowF,DewpointHighF,DewpointAvgF,DewpointLowF,HumidityHigh,HumidityAvg,HumidityLow,PressureMaxIn,PressureMinIn,WindSpeedMaxMPH,WindSpeedAvgMPH,GustSpeedMaxMPH,PrecipitationSumIn
2013-9-1,90,82,74,80,74,70,89,77,68,29.45,29.38,0,0,0,0.02
2013-9-2,95,80,75,81,73,68,89,80,58,29.48,29.39,0,0,0,0.10
2013-9-3,91,81,73,79,74,69,88,80,65,29.48,29.38,0,0,0,0.23
2013-9-4,86,81,78,79,75,72,88,81,74,29.52,29.39,0,0,0,0.65
2013-9-5,94,84,79,80,76,73,86,76,57,29.52,29.44,0,0,0,0.00
2013-9-6,98,86,79,78,75,73,84,71,52,29.48,29.37,0,0,0,0.00
2013-9-7,89,80,75,78,73,70,85,79,69,29.42,29.35,0,0,0,0.04
2013-9-8,88,79,73,76,72,69,87,79,66,29.39,29.30,0,0,0,0.25
2013-9-9,92,83,74,77,73,69,86,73,58,29.43,29.34,0,0,0,0.00
2013-9-10,93,84,78,76,74,71,81,71,52,29.48,29.39,0,0,0,0.00
2013-9-11,84,81,76,77,73,70,84,77,71,29.51,29.40,0,0,0,0.89
2013-9-12,86,80,77,77,74,71,87,80,73,29.47,29.33,0,0,0,0.00
2013-9-13,98,85,75,78,74,70,87,71,52,29.35,29.25,0,0,0,0.00
2013-9-14,97,86,77,77,73,71,83,68,48,29.43,29.27,0,0,0,0.00
2013-9-15,87,81,79,78,74,71,83,79,73,29.49,29.37,0,0,0,0.05
2013-9-16,86,81,78,78,74,71,85,79,68,29.48,29.40,0,0,0,0.02
2013-9-17,86,80,76,78,73,71,86,80,72,29.48,29.35,0,0,0,0.36
2013-9-18,90,81,76,78,73,70,88,78,61,29.47,29.36,0,0,0,1.10
2013-9-19,91,81,74,77,73,69,88,77,59,29.45,29.36,0,0,0,0.02
2013-9-20,90,82,75,72,69,66,79,67,50,29.44,29.34,0,0,0,0.00
2013-9-21,94,83,74,75,71,68,81,69,54,29.36,29.22,0,0,0,0.00
2013-9-22,95,85,77,78,74,71,84,71,53,29.32,29.20,0,0,0,0.00
2013-9-23,92,82,78,80,74,71,86,78,62,29.43,29.30,0,0,0,0.45
2013-9-24,97,83,76,81,75,70,89,77,57,29.42,29.32,0,0,0,0.04
2013-9-25,91,81,76,78,72,68,83,75,60,29.36,29.25,0,0,0,0.11
2013-9-26,91,81,77,79,74,71,87,81,65,29.32,29.24,0,0,0,0.14
2013-9-27,91,81,75,75,72,69,89,74,49,29.37,29.26,0,0,0,0.00
2013-9-28,92,80,74,75,71,69,87,74,55,29.40,29.32,0,0,0,0.06
2013-9-29,92,81,73,74,70,67,86,70,49,29.42,29.32,0,0,0,0.02
2013-9-30,94,82,73,74,69,66,82,66,49,29.45,29.35,0,0,0,0.00